Time;durP1;ratioP1;P1;durP2;ratioP2;P2;SDS_P1;SDS_P2;PMS_P1;PMS_P2;Temp;Humidity;BMP_temperature;BMP_pressure;BME280_temperature;BME280_humidity;BME280_pressure;Samples;Min_cycle;Max_cycle;Signal;HPM_P1;HPM_P2
2021/08/17 00:01:40;;;;;;;6.63;5.97;;;;;;;10.32;100.00;98095.13;5047237;28;20210;-66
2021/08/17 00:04:09;;;;;;;10.57;7.27;;;;;;;10.32;100.00;98093.28;5058143;28;20210;-67
2021/08/17 00:06:37;;;;;;;8.03;5.60;;;;;;;10.36;100.00;98096.44;5054115;28;20215;-65
2021/08/17 00:09:06;;;;;;;6.87;5.33;;;;;;;10.29;100.00;98090.94;5054260;28;20200;-67
2021/08/17 00:11:34;;;;;;;8.90;6.03;;;;;;;10.18;100.00;98089.41;5055170;28;20207;-66
2021/08/17 00:14:02;;;;;;;6.03;5.17;;;;;;;10.16;100.00;98099.34;5047208;28;20207;-66
2021/08/17 00:16:30;;;;;;;6.40;4.93;;;;;;;10.09;100.00;98083.28;5054245;28;20559;-65
2021/08/17 00:18:58;;;;;;;6.27;5.57;;;;;;;10.23;100.00;98095.09;5051116;28;20771;-66
2021/08/17 00:21:27;;;;;;;5.90;5.37;;;;;;;10.19;100.00;98095.56;5052138;28;20480;-67
2021/08/17 00:23:56;;;;;;;8.37;6.20;;;;;;;10.13;100.00;98102.31;5058395;28;20264;-66
2021/08/17 00:26:24;;;;;;;5.47;4.47;;;;;;;10.07;100.00;98106.44;5056731;28;20202;-66
2021/08/17 00:28:52;;;;;;;5.23;4.73;;;;;;;10.02;100.00;98110.53;5048490;28;20211;-65
2021/08/17 00:31:20;;;;;;;9.37;5.67;;;;;;;10.01;100.00;98106.22;5052723;28;20241;-64
2021/08/17 00:33:48;;;;;;;8.27;4.93;;;;;;;10.08;100.00;98094.84;5053717;28;20689;-65
2021/08/17 00:36:16;;;;;;;5.40;4.80;;;;;;;10.02;100.00;98100.75;5053023;28;20231;-66
2021/08/17 00:38:46;;;;;;;5.70;5.10;;;;;;;10.04;100.00;98105.91;5054920;28;20206;-65
2021/08/17 00:41:14;;;;;;;6.33;5.10;;;;;;;10.06;100.00;98117.16;5051930;28;20297;-65
2021/08/17 00:43:42;;;;;;;6.93;6.23;;;;;;;10.01;100.00;98116.81;5051427;28;20206;-66
2021/08/17 00:46:10;;;;;;;6.50;5.00;;;;;;;10.10;100.00;98107.91;5057148;28;20208;-66
2021/08/17 00:48:39;;;;;;;6.87;4.83;;;;;;;10.01;100.00;98108.88;5057412;28;20203;-65
2021/08/17 00:51:08;;;;;;;6.63;4.90;;;;;;;10.10;100.00;98103.47;5055869;28;20223;-66
2021/08/17 00:53:36;;;;;;;5.90;5.27;;;;;;;10.11;100.00;98104.28;5055691;28;20218;-66
2021/08/17 00:56:06;;;;;;;9.77;5.60;;;;;;;10.09;100.00;98117.69;5047075;28;20694;-64
2021/08/17 00:58:35;;;;;;;6.93;5.33;;;;;;;10.01;100.00;98120.28;5055866;28;20210;-66
2021/08/17 01:01:03;;;;;;;7.53;5.53;;;;;;;10.04;100.00;98112.03;5051243;28;20723;-65
2021/08/17 01:03:31;;;;;;;7.87;5.73;;;;;;;9.94;100.00;98111.31;5050187;28;20294;-67
2021/08/17 01:05:59;;;;;;;6.73;5.50;;;;;;;10.16;100.00;98111.75;5054766;28;20208;-66
2021/08/17 01:08:28;;;;;;;5.83;5.17;;;;;;;10.12;100.00;98116.53;5054115;28;20199;-65
2021/08/17 01:10:56;;;;;;;7.97;5.90;;;;;;;10.02;100.00;98116.63;5048840;28;20228;-66
2021/08/17 01:13:28;;;;;;;8.10;5.70;;;;;;;10.01;100.00;98116.81;5049602;28;20210;-66
2021/08/17 01:15:56;;;;;;;7.23;5.77;;;;;;;10.05;100.00;98118.16;5054868;28;20212;-65
2021/08/17 01:18:25;;;;;;;8.57;6.43;;;;;;;9.94;100.00;98119.25;5051787;28;20474;-65
2021/08/17 01:20:55;;;;;;;7.13;6.00;;;;;;;9.88;100.00;98114.59;5047337;28;20231;-65
2021/08/17 01:23:25;;;;;;;7.20;6.27;;;;;;;9.97;100.00;98121.59;5049300;28;20228;-65
2021/08/17 01:25:55;;;;;;;7.73;6.13;;;;;;;9.99;100.00;98119.59;5049242;28;20219;-66
2021/08/17 01:28:23;;;;;;;8.63;6.70;;;;;;;9.93;100.00;98123.72;5049322;28;20695;-65
2021/08/17 01:30:59;;;;;;;10.63;6.57;;;;;;;9.85;100.00;98121.03;5051961;28;20972;-65
2021/08/17 01:33:27;;;;;;;8.00;6.63;;;;;;;9.77;100.00;98129.75;5057440;28;20560;-65
2021/08/17 01:35:55;;;;;;;7.80;7.10;;;;;;;9.77;100.00;98132.41;5049431;28;20203;-64
2021/08/17 01:38:23;;;;;;;9.77;7.23;;;;;;;9.73;100.00;98146.09;5051969;28;20621;-65
2021/08/17 01:40:51;;;;;;;10.03;7.77;;;;;;;9.69;100.00;98153.53;5053812;28;20238;-66
2021/08/17 01:43:21;;;;;;;8.40;7.57;;;;;;;9.61;100.00;98153.44;5050418;28;20207;-65
2021/08/17 01:45:58;;;;;;;7.07;6.37;;;;;;;9.49;100.00;98158.97;5051393;28;20205;-66
2021/08/17 01:48:27;;;;;;;7.37;6.63;;;;;;;9.53;100.00;98167.44;5052356;28;20269;-67
2021/08/17 01:50:55;;;;;;;8.70;6.80;;;;;;;9.44;100.00;98171.84;5053319;28;20228;-67
2021/08/17 01:53:24;;;;;;;9.97;8.30;;;;;;;9.48;100.00;98175.03;5048142;28;20203;-66
2021/08/17 01:55:52;;;;;;;11.90;7.07;;;;;;;9.34;100.00;98179.03;5048208;28;20207;-66
2021/08/17 01:58:22;;;;;;;7.80;7.00;;;;;;;9.34;100.00;98177.19;5055520;28;20227;-65
2021/08/17 02:00:50;;;;;;;9.03;6.80;;;;;;;9.41;100.00;98182.72;5047474;28;20469;-65
2021/08/17 02:03:19;;;;;;;7.93;7.13;;;;;;;9.33;100.00;98182.66;5046766;28;20603;-65
2021/08/17 02:05:47;;;;;;;7.83;6.97;;;;;;;9.29;100.00;98184.75;5059452;28;20589;-67
2021/08/17 02:08:15;;;;;;;8.13;7.10;;;;;;;9.21;100.00;98185.50;5048716;28;20210;-65
2021/08/17 02:10:42;;;;;;;8.67;6.80;;;;;;;9.17;100.00;98189.44;5054949;28;20226;-66
2021/08/17 02:13:11;;;;;;;10.17;7.50;;;;;;;9.12;100.00;98186.41;5048505;28;20215;-65
2021/08/17 02:15:40;;;;;;;8.30;7.40;;;;;;;9.09;100.00;98192.00;5057941;28;20204;-65
2021/08/17 02:18:08;;;;;;;9.27;6.90;;;;;;;9.05;100.00;98190.63;5052194;28;20233;-66
2021/08/17 02:20:36;;;;;;;10.17;7.60;;;;;;;9.06;100.00;98194.94;5050651;28;20616;-65
2021/08/17 02:23:04;;;;;;;6.67;6.10;;;;;;;9.05;100.00;98194.09;5052004;28;20199;-66
2021/08/17 02:25:32;;;;;;;9.93;6.87;;;;;;;8.97;100.00;98197.50;5052503;28;20756;-65
2021/08/17 02:28:00;;;;;;;9.07;7.50;;;;;;;9.01;100.00;98197.22;5050284;28;20199;-65
2021/08/17 02:30:28;;;;;;;9.13;7.93;;;;;;;8.99;100.00;98205.28;5056534;28;20223;-66
2021/08/17 02:32:58;;;;;;;9.43;8.10;;;;;;;8.97;100.00;98202.78;5046271;28;20210;-66
2021/08/17 02:35:26;;;;;;;11.80;7.90;;;;;;;8.93;100.00;98201.44;5051497;28;20208;-66
2021/08/17 02:37:54;;;;;;;11.33;7.53;;;;;;;8.96;100.00;98206.41;5054175;28;20435;-66
2021/08/17 02:40:22;;;;;;;9.83;7.17;;;;;;;8.88;100.00;98203.66;5053934;28;20254;-65
2021/08/17 02:42:50;;;;;;;10.57;7.80;;;;;;;8.89;100.00;98205.31;5052796;28;20761;-67
2021/08/17 02:45:18;;;;;;;9.20;8.10;;;;;;;8.85;100.00;98211.88;5053408;28;20206;-66
2021/08/17 02:47:46;;;;;;;10.03;6.90;;;;;;;8.88;100.00;98206.31;5046101;28;20199;-67
2021/08/17 02:50:17;;;;;;;11.47;8.27;;;;;;;8.88;100.00;98203.66;5049686;28;20237;-66
2021/08/17 02:52:45;;;;;;;13.43;7.60;;;;;;;8.87;100.00;98198.53;5046912;28;20209;-65
2021/08/17 02:55:13;;;;;;;9.27;7.23;;;;;;;8.91;100.00;98191.97;5047411;28;20253;-66
2021/08/17 02:57:48;;;;;;;10.67;7.40;;;;;;;8.91;100.00;98200.75;5051796;28;20233;-66
2021/08/17 03:00:17;;;;;;;11.63;7.87;;;;;;;8.91;100.00;98202.53;5047901;28;20633;-67
2021/08/17 03:02:46;;;;;;;10.53;7.67;;;;;;;8.85;100.00;98197.84;5047673;28;20514;-66
2021/08/17 03:05:14;;;;;;;9.90;7.17;;;;;;;8.85;100.00;98188.09;5039365;28;20615;-66
2021/08/17 03:07:51;;;;;;;10.70;7.00;;;;;;;8.83;100.00;98195.34;5048806;28;20230;-67
2021/08/17 03:10:20;;;;;;;10.47;6.63;;;;;;;8.74;100.00;98185.66;5049476;28;20229;-67
2021/08/17 03:12:48;;;;;;;10.73;8.10;;;;;;;8.76;100.00;98191.63;5048623;28;20205;-65
2021/08/17 03:15:17;;;;;;;8.33;7.27;;;;;;;8.78;100.00;98189.69;5045880;28;20625;-66
2021/08/17 03:17:45;;;;;;;11.20;7.73;;;;;;;8.75;100.00;98188.19;5049802;28;20739;-67
2021/08/17 03:20:14;;;;;;;9.50;7.30;;;;;;;8.78;100.00;98198.44;5049064;28;20234;-66
2021/08/17 03:22:43;;;;;;;12.20;8.03;;;;;;;8.73;100.00;98199.88;5053814;28;20205;-68
2021/08/17 03:25:14;;;;;;;11.57;8.17;;;;;;;8.67;100.00;98204.75;5048747;28;20230;-68
2021/08/17 03:27:42;;;;;;;8.57;7.67;;;;;;;8.66;100.00;98208.38;5055044;28;20457;-67
2021/08/17 03:30:13;;;;;;;8.07;7.27;;;;;;;8.64;100.00;98214.78;5052254;28;20227;-68
2021/08/17 03:32:41;;;;;;;9.60;7.63;;;;;;;8.74;100.00;98212.94;5048421;28;20616;-67
2021/08/17 03:35:10;;;;;;;9.20;7.53;;;;;;;8.69;100.00;98210.72;5047231;28;20204;-66
2021/08/17 03:37:38;;;;;;;8.93;7.93;;;;;;;8.76;100.00;98218.06;5045938;28;20230;-66
2021/08/17 03:40:08;;;;;;;12.87;7.83;;;;;;;8.78;100.00;98208.19;5050163;28;20227;-66
2021/08/17 03:42:38;;;;;;;10.13;8.03;;;;;;;8.76;100.00;98216.28;5050163;28;20258;-67
2021/08/17 03:45:07;;;;;;;8.83;6.77;;;;;;;8.80;100.00;98220.28;5048503;28;20705;-67
2021/08/17 03:47:35;;;;;;;10.83;7.27;;;;;;;8.78;100.00;98224.03;5049127;28;20763;-67
2021/08/17 03:50:05;;;;;;;7.80;6.90;;;;;;;8.77;100.00;98225.84;5048997;28;20215;-66
2021/08/17 03:52:33;;;;;;;10.97;6.97;;;;;;;8.78;100.00;98224.88;5054411;28;20211;-66
2021/08/17 03:55:01;;;;;;;8.27;7.47;;;;;;;8.75;100.00;98232.25;5044774;28;20715;-68
2021/08/17 03:57:29;;;;;;;9.43;7.10;;;;;;;8.75;100.00;98233.09;5048225;28;20211;-68
2021/08/17 03:59:59;;;;;;;12.40;7.50;;;;;;;8.68;100.00;98235.47;5053939;28;20605;-67
2021/08/17 04:02:27;;;;;;;8.70;7.00;;;;;;;8.64;100.00;98239.41;5047273;28;20214;-68
2021/08/17 04:04:55;;;;;;;9.33;7.50;;;;;;;8.63;100.00;98234.25;5045441;28;20206;-67
2021/08/17 04:07:23;;;;;;;10.23;7.67;;;;;;;8.63;100.00;98237.75;5047650;28;20616;-67
2021/08/17 04:09:51;;;;;;;8.73;6.83;;;;;;;8.66;100.00;98231.31;5050625;28;20215;-67
2021/08/17 04:12:19;;;;;;;7.20;6.47;;;;;;;8.61;100.00;98233.56;5044452;28;20211;-67
2021/08/17 04:14:47;;;;;;;8.33;7.43;;;;;;;8.55;100.00;98235.00;5039457;28;20207;-66
2021/08/17 04:17:16;;;;;;;9.80;7.17;;;;;;;8.53;100.00;98239.59;5045269;28;20211;-67
2021/08/17 04:19:44;;;;;;;10.43;7.63;;;;;;;8.51;100.00;98236.22;5052101;28;20233;-66
2021/08/17 04:22:12;;;;;;;8.07;6.47;;;;;;;8.54;100.00;98236.78;5055481;28;20207;-66
2021/08/17 04:24:40;;;;;;;6.87;5.97;;;;;;;8.58;100.00;98241.78;5047023;28;20669;-66
2021/08/17 04:27:08;;;;;;;8.87;6.67;;;;;;;8.56;100.00;98247.22;5053938;28;20214;-67
2021/08/17 04:29:38;;;;;;;6.63;6.03;;;;;;;8.58;100.00;98255.84;5047724;28;20219;-67
2021/08/17 04:32:07;;;;;;;6.40;5.77;;;;;;;8.63;100.00;98258.88;5045328;28;20199;-68
2021/08/17 04:34:36;;;;;;;9.00;6.10;;;;;;;8.62;100.00;98254.56;5049540;28;20246;-69
2021/08/17 04:37:05;;;;;;;8.07;6.40;;;;;;;8.61;100.00;98263.47;5054183;28;20238;-69
2021/08/17 04:39:33;;;;;;;6.60;5.93;;;;;;;8.59;100.00;98262.78;5057541;28;20246;-69
2021/08/17 04:42:01;;;;;;;8.70;5.67;;;;;;;8.66;100.00;98260.38;5047790;28;20710;-67
2021/08/17 04:44:33;;;;;;;6.57;5.87;;;;;;;8.71;100.00;98262.59;5059562;28;20225;-69
2021/08/17 04:47:01;;;;;;;8.63;5.63;;;;;;;8.68;100.00;98264.56;5050342;28;20634;-67
2021/08/17 04:49:29;;;;;;;7.00;5.57;;;;;;;8.61;100.00;98258.19;5055322;28;20573;-67
2021/08/17 04:51:58;;;;;;;10.30;6.07;;;;;;;8.72;100.00;98262.47;5047856;28;20215;-68
2021/08/17 04:54:26;;;;;;;6.03;5.43;;;;;;;8.76;100.00;98265.63;5050563;28;20222;-69
2021/08/17 04:56:54;;;;;;;10.37;5.07;;;;;;;8.77;100.00;98262.00;5049788;28;20219;-69
2021/08/17 04:59:22;;;;;;;6.23;5.33;;;;;;;8.83;100.00;98266.69;5051592;28;20231;-69
2021/08/17 05:01:50;;;;;;;7.90;5.37;;;;;;;8.95;100.00;98262.91;5050718;28;21010;-68
2021/08/17 05:04:18;;;;;;;6.03;4.93;;;;;;;9.00;100.00;98272.22;5054690;28;20215;-66
2021/08/17 05:06:46;;;;;;;5.60;4.80;;;;;;;9.03;100.00;98282.47;5050882;28;20213;-68
2021/08/17 05:09:16;;;;;;;14.27;6.07;;;;;;;9.08;100.00;98270.47;5054558;28;20335;-67
2021/08/17 05:11:44;;;;;;;7.13;4.93;;;;;;;9.21;100.00;98278.06;5055102;28;20202;-66
2021/08/17 05:14:12;;;;;;;7.73;5.03;;;;;;;9.26;100.00;98282.91;5049877;28;20199;-68
2021/08/17 05:16:40;;;;;;;8.47;5.30;;;;;;;9.38;100.00;98280.91;5049184;28;21495;-68
2021/08/17 05:19:08;;;;;;;7.43;5.00;;;;;;;9.38;100.00;98284.34;5051352;28;20678;-68
2021/08/17 05:21:36;;;;;;;5.63;4.77;;;;;;;9.42;100.00;98292.84;5055933;28;20219;-67
2021/08/17 05:24:04;;;;;;;11.10;5.97;;;;;;;9.49;100.00;98293.09;5050428;28;20212;-69
2021/08/17 05:26:33;;;;;;;5.83;4.70;;;;;;;9.61;100.00;98301.59;5051539;28;20227;-67
2021/08/17 05:29:03;;;;;;;6.63;5.20;;;;;;;9.59;100.00;98301.78;5052821;28;20238;-68
2021/08/17 05:31:31;;;;;;;6.10;5.07;;;;;;;9.59;100.00;98307.06;5050787;28;20218;-67
2021/08/17 05:33:59;;;;;;;8.43;4.97;;;;;;;9.65;100.00;98303.81;5046069;28;20210;-68
2021/08/17 05:36:27;;;;;;;6.13;4.73;;;;;;;9.61;100.00;98312.19;5051080;28;20233;-69
2021/08/17 05:38:55;;;;;;;5.80;4.93;;;;;;;9.67;100.00;98309.78;5051258;28;20218;-69
2021/08/17 05:41:23;;;;;;;7.13;4.70;;;;;;;9.74;100.00;98304.72;5050408;28;20782;-69
2021/08/17 05:43:52;;;;;;;6.13;4.50;;;;;;;9.80;100.00;98312.06;5048910;28;20214;-69
2021/08/17 05:46:20;;;;;;;7.60;4.43;;;;;;;9.86;100.00;98323.88;5051129;28;20257;-67
2021/08/17 05:48:48;;;;;;;6.87;4.70;;;;;;;9.80;100.00;98320.00;5048681;28;20270;-66
2021/08/17 05:51:16;;;;;;;5.90;4.37;;;;;;;9.85;100.00;98311.63;5048386;28;20737;-67
2021/08/17 05:53:44;;;;;;;7.93;5.23;;;;;;;10.03;100.00;98318.72;5051093;28;20207;-68
2021/08/17 05:56:12;;;;;;;8.90;4.43;;;;;;;10.09;100.00;98323.38;5049060;28;20207;-68
2021/08/17 05:58:40;;;;;;;7.60;4.60;;;;;;;10.17;100.00;98325.28;5055911;28;20206;-67
2021/08/17 06:01:09;;;;;;;5.70;4.17;;;;;;;10.07;100.00;98330.66;5048656;28;20223;-68
2021/08/17 06:03:50;;;;;;;5.67;4.60;;;;;;;10.17;100.00;98331.41;5048732;28;20725;-68
2021/08/17 06:06:18;;;;;;;4.93;4.10;;;;;;;10.40;100.00;98329.13;5049911;28;20784;-67
2021/08/17 06:08:46;;;;;;;5.37;4.27;;;;;;;10.33;100.00;98324.59;5050438;28;20199;-67
2021/08/17 06:11:14;;;;;;;6.07;5.07;;;;;;;10.30;100.00;98330.19;5049362;28;20808;-69
2021/08/17 06:13:42;;;;;;;6.90;5.03;;;;;;;10.45;100.00;98343.75;5048013;28;20288;-69
2021/08/17 06:16:11;;;;;;;6.77;4.20;;;;;;;10.47;100.00;98337.28;5049884;28;20519;-70
2021/08/17 06:18:39;;;;;;;5.63;4.33;;;;;;;10.41;100.00;98330.78;5052269;28;20298;-70
2021/08/17 06:21:07;;;;;;;9.40;4.73;;;;;;;10.54;100.00;98340.16;5050694;28;20226;-70
2021/08/17 06:23:36;;;;;;;5.10;4.37;;;;;;;10.56;100.00;98332.88;5054427;28;20619;-70
2021/08/17 06:26:04;;;;;;;6.03;5.47;;;;;;;10.53;100.00;98341.16;5050248;28;20695;-70
2021/08/17 06:28:32;;;;;;;5.53;4.90;;;;;;;10.57;100.00;98329.25;5048490;28;20647;-69
2021/08/17 06:31:00;;;;;;;8.10;5.03;;;;;;;10.75;100.00;98329.19;5050351;28;20238;-69
2021/08/17 06:33:29;;;;;;;6.90;5.63;;;;;;;10.79;100.00;98345.59;5046908;28;20372;-69
2021/08/17 06:35:57;;;;;;;7.53;4.63;;;;;;;10.90;100.00;98344.50;5048066;28;20667;-67
2021/08/17 06:38:25;;;;;;;6.90;4.77;;;;;;;10.80;100.00;98355.25;5051300;28;20211;-70
2021/08/17 06:40:53;;;;;;;5.43;4.93;;;;;;;10.77;100.00;98347.56;5045241;28;20946;-67
2021/08/17 06:43:23;;;;;;;7.73;5.30;;;;;;;10.74;100.00;98348.75;5053994;28;20256;-67
2021/08/17 06:45:51;;;;;;;7.07;5.37;;;;;;;10.77;100.00;98350.22;5051627;28;20227;-67
2021/08/17 06:48:19;;;;;;;5.30;4.80;;;;;;;10.96;100.00;98355.31;5047743;28;20238;-68
2021/08/17 06:50:49;;;;;;;7.77;6.07;;;;;;;11.21;100.00;98355.44;5048842;28;20469;-68
2021/08/17 06:53:16;;;;;;;7.37;5.53;;;;;;;11.26;100.00;98354.97;5047164;28;20211;-69
2021/08/17 06:55:45;;;;;;;7.77;4.70;;;;;;;11.52;100.00;98340.78;5052856;28;20214;-69
2021/08/17 06:58:14;;;;;;;6.53;4.93;;;;;;;11.58;100.00;98345.44;5050102;28;20631;-69
2021/08/17 07:00:42;;;;;;;5.77;5.23;;;;;;;11.57;100.00;98360.56;5052649;28;20226;-69
2021/08/17 07:03:11;;;;;;;7.63;5.67;;;;;;;11.56;100.00;98355.41;5046993;28;20207;-68
2021/08/17 07:05:42;;;;;;;6.00;5.33;;;;;;;11.49;100.00;98341.94;5052253;28;21493;-69
2021/08/17 07:08:12;;;;;;;8.43;5.17;;;;;;;11.69;100.00;98349.63;5045337;28;20200;-69
2021/08/17 07:10:40;;;;;;;6.43;5.50;;;;;;;11.73;100.00;98346.47;5051223;28;21782;-68
2021/08/17 07:13:23;;;;;;;5.23;4.63;;;;;;;11.86;100.00;98343.34;5049175;28;20222;-68
2021/08/17 07:15:51;;;;;;;6.30;5.17;;;;;;;12.16;100.00;98354.38;5049575;28;20204;-69
2021/08/17 07:18:20;;;;;;;6.87;4.63;;;;;;;12.18;100.00;98356.03;5046551;28;20203;-68
2021/08/17 07:20:47;;;;;;;7.03;4.77;;;;;;;12.13;100.00;98365.34;5051221;28;20214;-69
2021/08/17 07:23:18;;;;;;;7.33;5.37;;;;;;;12.44;100.00;98363.84;5043967;28;20579;-68
2021/08/17 07:25:46;;;;;;;6.53;5.03;;;;;;;12.41;100.00;98362.34;5049128;28;20214;-70
2021/08/17 07:28:14;;;;;;;5.50;5.07;;;;;;;12.26;100.00;98374.63;5047018;28;20743;-71
2021/08/17 07:30:43;;;;;;;6.13;4.57;;;;;;;12.20;100.00;98385.91;5050266;28;20229;-67
2021/08/17 07:33:11;;;;;;;4.93;4.43;;;;;;;12.24;100.00;98381.94;5048635;28;20490;-70
2021/08/17 07:35:39;;;;;;;5.83;4.80;;;;;;;12.17;100.00;98381.78;5046635;28;20212;-69
2021/08/17 07:38:07;;;;;;;5.07;4.67;;;;;;;12.22;100.00;98384.78;5049717;28;20214;-69
2021/08/17 07:40:37;;;;;;;5.33;4.83;;;;;;;12.41;100.00;98378.31;5047480;28;20259;-71
2021/08/17 07:43:05;;;;;;;5.17;4.23;;;;;;;12.58;100.00;98386.25;5053375;28;20227;-70
2021/08/17 07:45:34;;;;;;;5.67;5.00;;;;;;;12.54;100.00;98384.94;5054772;28;20208;-71
2021/08/17 07:48:22;;;;;;;4.60;4.07;;;;;;;12.64;100.00;98387.44;5048937;28;20667;-69
2021/08/17 07:50:50;;;;;;;5.10;4.67;;;;;;;12.50;100.00;98391.59;5047348;28;20226;-69
2021/08/17 07:53:18;;;;;;;7.70;5.43;;;;;;;12.36;100.00;98393.91;5049392;28;20287;-68
2021/08/17 07:55:47;;;;;;;5.10;4.37;;;;;;;12.34;100.00;98387.09;5047818;28;20214;-67
2021/08/17 07:58:15;;;;;;;6.93;4.93;;;;;;;12.40;100.00;98389.09;5049192;28;20261;-68
2021/08/17 08:00:43;;;;;;;7.77;6.27;;;;;;;12.61;100.00;98390.44;5046492;28;20773;-69
2021/08/17 08:03:11;;;;;;;6.53;4.77;;;;;;;12.47;100.00;98392.72;5049209;28;20211;-68
2021/08/17 08:05:39;;;;;;;5.20;4.67;;;;;;;12.59;100.00;98402.06;5053744;28;20501;-70
2021/08/17 08:08:07;;;;;;;6.13;5.20;;;;;;;12.35;100.00;98394.06;5046594;28;20263;-70
2021/08/17 08:10:36;;;;;;;5.03;4.57;;;;;;;12.27;100.00;98398.38;5051489;28;20318;-69
2021/08/17 08:13:05;;;;;;;6.17;4.90;;;;;;;12.45;100.00;98400.91;5053114;28;20537;-69
2021/08/17 08:15:33;;;;;;;5.03;4.63;;;;;;;12.27;100.00;98397.53;5049032;28;20215;-69
2021/08/17 08:18:02;;;;;;;5.77;5.00;;;;;;;12.42;100.00;98401.22;5051516;28;20323;-69
2021/08/17 08:20:30;;;;;;;5.40;4.90;;;;;;;12.50;100.00;98397.75;5050460;28;20406;-71
2021/08/17 08:22:58;;;;;;;6.43;4.50;;;;;;;12.50;100.00;98402.22;5050817;28;20635;-68
2021/08/17 08:25:26;;;;;;;5.57;5.07;;;;;;;12.54;100.00;98408.84;5049814;28;20607;-68
2021/08/17 08:27:54;;;;;;;7.17;5.03;;;;;;;12.58;100.00;98407.53;5047882;28;20204;-70
2021/08/17 08:30:24;;;;;;;6.63;5.23;;;;;;;12.73;100.00;98416.50;5050040;28;20215;-69
2021/08/17 08:32:52;;;;;;;6.40;4.93;;;;;;;12.78;100.00;98413.31;5049220;28;20699;-68
2021/08/17 08:35:21;;;;;;;6.83;4.57;;;;;;;12.93;100.00;98413.47;5054026;28;20210;-67
2021/08/17 08:37:49;;;;;;;5.27;4.87;;;;;;;12.82;100.00;98416.50;5055599;28;20212;-68
2021/08/17 08:40:17;;;;;;;5.30;4.80;;;;;;;12.84;100.00;98417.97;5052500;28;20223;-68
2021/08/17 08:42:46;;;;;;;5.73;5.33;;;;;;;12.94;100.00;98409.81;5051956;28;20210;-70
2021/08/17 08:45:15;;;;;;;6.10;4.83;;;;;;;13.11;100.00;98405.28;5049064;28;20210;-69
2021/08/17 08:47:44;;;;;;;5.57;4.80;;;;;;;12.95;100.00;98413.31;5048903;28;20199;-68
2021/08/17 08:50:13;;;;;;;8.20;5.23;;;;;;;13.18;100.00;98402.78;5053417;28;20226;-71
2021/08/17 08:52:41;;;;;;;5.73;4.73;;;;;;;13.29;100.00;98407.75;5052553;28;20226;-70
2021/08/17 08:55:10;;;;;;;6.93;5.07;;;;;;;13.28;100.00;98407.94;5049410;28;20568;-68
2021/08/17 08:57:38;;;;;;;5.10;4.47;;;;;;;13.19;100.00;98399.13;5052379;28;20216;-68
2021/08/17 09:00:09;;;;;;;4.93;4.53;;;;;;;12.99;100.00;98407.47;5049197;28;20254;-68
2021/08/17 09:02:38;;;;;;;5.47;4.87;;;;;;;12.95;100.00;98408.81;5050017;28;20322;-68
2021/08/17 09:05:09;;;;;;;6.93;4.90;;;;;;;12.78;100.00;98405.34;5049448;28;20455;-69
2021/08/17 09:07:39;;;;;;;6.57;4.70;;;;;;;12.79;100.00;98411.50;5051687;28;20217;-66
2021/08/17 09:10:11;;;;;;;4.47;4.17;;;;;;;12.77;100.00;98419.66;5051848;28;20254;-69
2021/08/17 09:12:41;;;;;;;5.17;4.80;;;;;;;12.84;100.00;98407.34;5051721;28;20228;-68
2021/08/17 09:15:12;;;;;;;6.73;4.80;;;;;;;13.02;100.00;98403.66;5049828;28;20208;-68
2021/08/17 09:17:41;;;;;;;7.60;4.67;;;;;;;12.86;100.00;98399.19;5052881;28;20206;-69
2021/08/17 09:20:15;;;;;;;5.27;4.77;;;;;;;13.23;100.00;98397.78;5048469;28;20228;-69
2021/08/17 09:22:43;;;;;;;5.73;5.07;;;;;;;13.26;100.00;98396.63;5047011;28;20202;-69
2021/08/17 09:25:11;;;;;;;5.30;4.80;;;;;;;13.42;100.00;98390.38;5052499;28;20235;-67
2021/08/17 09:27:39;;;;;;;5.40;5.00;;;;;;;13.50;100.00;98389.56;5053077;28;20576;-67
2021/08/17 09:30:10;;;;;;;4.80;4.27;;;;;;;13.42;100.00;98379.72;5048906;28;20703;-68
2021/08/17 09:32:52;;;;;;;6.20;4.83;;;;;;;13.31;100.00;98379.13;5050302;28;20238;-67
2021/08/17 09:35:24;;;;;;;5.17;3.90;;;;;;;13.40;100.00;98387.91;5048405;28;20512;-67
2021/08/17 09:38:13;;;;;;;5.13;4.73;;;;;;;13.50;100.00;98394.88;5053249;28;20298;-68
2021/08/17 09:40:42;;;;;;;5.10;4.67;;;;;;;13.71;100.00;98389.81;5050170;28;20222;-67
2021/08/17 09:43:15;;;;;;;5.13;4.60;;;;;;;13.78;100.00;98389.09;5053479;28;20199;-68
2021/08/17 09:45:43;;;;;;;6.10;4.70;;;;;;;13.78;100.00;98394.44;5051741;28;20356;-67
2021/08/17 09:48:12;;;;;;;5.23;4.67;;;;;;;14.08;100.00;98379.41;5050777;28;20199;-67
2021/08/17 09:50:42;;;;;;;4.97;4.50;;;;;;;14.39;100.00;98381.19;5050785;28;20230;-68
2021/08/17 09:53:12;;;;;;;4.77;4.37;;;;;;;14.84;100.00;98377.81;5051484;28;20516;-68
2021/08/17 09:55:43;;;;;;;6.27;5.00;;;;;;;14.83;100.00;98378.84;5051064;28;20582;-67
2021/08/17 09:58:26;;;;;;;5.10;4.63;;;;;;;14.56;92.84;98375.69;5050140;28;20214;-67
2021/08/17 10:00:55;;;;;;;5.07;4.50;;;;;;;14.45;86.15;98366.31;5047596;28;20231;-68
2021/08/17 10:03:24;;;;;;;5.33;4.83;;;;;;;14.40;86.00;98356.19;5049061;28;20195;-67
2021/08/17 10:05:54;;;;;;;6.07;5.20;;;;;;;14.23;91.63;98366.16;5055873;28;20211;-67
2021/08/17 10:08:23;;;;;;;6.03;4.93;;;;;;;14.45;94.93;98361.00;5049878;28;20527;-66
2021/08/17 10:10:53;;;;;;;5.17;4.67;;;;;;;14.31;97.54;98359.94;5050936;28;20223;-67
2021/08/17 10:13:23;;;;;;;5.60;5.20;;;;;;;14.47;95.03;98357.13;5048183;28;20228;-66
2021/08/17 10:15:52;;;;;;;6.53;5.40;;;;;;;14.68;96.53;98360.94;5047040;28;20215;-69
2021/08/17 10:18:23;;;;;;;8.40;5.93;;;;;;;14.62;94.02;98353.66;5050807;28;20645;-69
2021/08/17 10:20:55;;;;;;;7.00;5.87;;;;;;;14.79;94.07;98342.84;5049201;28;20228;-68
2021/08/17 10:23:24;;;;;;;7.63;5.60;;;;;;;15.07;88.99;98342.22;5052401;28;20855;-69
2021/08/17 10:25:56;;;;;;;5.53;5.03;;;;;;;15.39;86.13;98343.66;5050044;28;20302;-70
2021/08/17 10:28:29;;;;;;;8.27;4.67;;;;;;;15.47;78.57;98340.88;5053007;28;20777;-70
2021/08/17 10:30:58;;;;;;;5.37;4.43;;;;;;;15.47;77.21;98343.56;5048713;28;20654;-70
2021/08/17 10:33:40;;;;;;;5.57;5.10;;;;;;;15.56;75.16;98333.59;5054209;28;20223;-69
2021/08/17 10:36:10;;;;;;;6.20;4.80;;;;;;;15.95;78.20;98328.91;5048014;28;20314;-69
2021/08/17 10:38:48;;;;;;;6.83;5.00;;;;;;;16.60;73.99;98328.81;5051725;28;20481;-70
2021/08/17 10:41:32;;;;;;;5.80;4.93;;;;;;;16.29;72.36;98318.50;5051304;28;20223;-70
2021/08/17 10:44:10;;;;;;;6.37;5.60;;;;;;;16.36;73.34;98316.72;5046522;28;20204;-69
2021/08/17 10:46:49;;;;;;;6.80;5.57;;;;;;;16.48;69.07;98307.16;5047913;28;20206;-68
2021/08/17 10:49:48;;;;;;;5.93;5.30;;;;;;;16.40;68.43;98314.50;5049015;28;20223;-70
2021/08/17 10:52:35;;;;;;;5.07;4.67;;;;;;;16.73;63.54;98306.69;5033900;28;20756;-70
2021/08/17 10:55:29;;;;;;;5.10;4.57;;;;;;;17.31;63.68;98297.56;5049460;28;20210;-69
2021/08/17 10:57:58;;;;;;;5.23;4.73;;;;;;;17.09;60.36;98304.03;5045008;28;20219;-69
2021/08/17 11:00:57;;;;;;;5.80;5.20;;;;;;;17.68;58.75;98299.13;5046894;28;20226;-68
2021/08/17 11:03:47;;;;;;;6.27;4.40;;;;;;;18.01;54.01;98284.97;5036630;28;20860;-70
2021/08/17 11:06:47;;;;;;;6.40;4.53;;;;;;;17.93;53.06;98297.50;5047281;28;20286;-70
2021/08/17 11:09:17;;;;;;;6.27;5.30;;;;;;;17.28;55.68;98305.16;4991712;28;20233;-69
2021/08/17 11:11:47;;;;;;;5.17;4.77;;;;;;;17.23;56.90;98294.22;5037263;28;20667;-70
2021/08/17 11:14:17;;;;;;;6.60;4.87;;;;;;;17.63;56.09;98289.84;5045867;28;20212;-70
2021/08/17 11:16:49;;;;;;;5.27;4.87;;;;;;;17.34;55.75;98299.00;5050712;28;20205;-70
2021/08/17 11:19:18;;;;;;;5.03;4.60;;;;;;;16.58;57.19;98303.31;5050987;28;20234;-70
2021/08/17 11:21:48;;;;;;;5.30;4.80;;;;;;;16.35;59.58;98309.72;5053003;28;20705;-68
2021/08/17 11:24:26;;;;;;;5.17;4.77;;;;;;;15.96;62.77;98308.34;5050487;28;20215;-69
2021/08/17 11:26:56;;;;;;;6.87;5.43;;;;;;;15.89;62.83;98309.13;5057045;28;20214;-71
2021/08/17 11:29:27;;;;;;;5.40;4.90;;;;;;;16.02;63.96;98311.09;5061842;28;20222;-69
2021/08/17 11:31:56;;;;;;;5.73;5.20;;;;;;;16.44;62.25;98297.03;5054407;28;20211;-69
2021/08/17 11:34:25;;;;;;;5.23;4.73;;;;;;;16.58;62.10;98314.81;5050835;28;20678;-69
2021/08/17 11:36:56;;;;;;;5.80;5.20;;;;;;;15.82;63.44;98305.53;5050355;28;20203;-71
2021/08/17 11:39:28;;;;;;;6.73;5.40;;;;;;;15.96;63.06;98297.66;5049624;28;20241;-70
2021/08/17 11:41:57;;;;;;;5.47;4.80;;;;;;;16.28;63.78;98301.63;5052752;28;20222;-69